Time;durP1;ratioP1;P1;durP2;ratioP2;P2;SDS_P1;SDS_P2;PMS_P1;PMS_P2;Temp;Humidity;BMP_temperature;BMP_pressure;BME280_temperature;BME280_humidity;BME280_pressure;Samples;Min_cycle;Max_cycle;Signal;HPM_P1;HPM_P2
2022/10/09 00:01:06;;;;;;;4.72;1.63;;;11.00;66.90;;;;;;5115866;27;20054;-70
2022/10/09 00:03:33;;;;;;;4.13;1.52;;;11.00;66.90;;;;;;5117557;27;20516;-70
2022/10/09 00:05:59;;;;;;;3.80;1.65;;;11.00;66.90;;;;;;5134626;27;20045;-70
2022/10/09 00:08:25;;;;;;;5.15;1.67;;;11.00;66.90;;;;;;5117891;27;20114;-70
2022/10/09 00:10:50;;;;;;;4.72;1.63;;;11.00;66.90;;;;;;5134716;27;20562;-70
2022/10/09 00:13:16;;;;;;;4.53;1.70;;;11.00;66.90;;;;;;5134862;27;20067;-70
2022/10/09 00:15:44;;;;;;;5.00;1.67;;;10.90;66.90;;;;;;5134865;27;20126;-70
2022/10/09 00:18:12;;;;;;;5.07;1.58;;;10.90;66.90;;;;;;5117694;27;20047;-70
2022/10/09 00:20:39;;;;;;;3.60;1.60;;;10.90;66.90;;;;;;5117810;27;20088;-70
2022/10/09 00:23:05;;;;;;;5.68;2.22;;;10.90;66.90;;;;;;5135029;27;20050;-70
2022/10/09 00:25:31;;;;;;;3.58;1.67;;;10.80;66.80;;;;;;5117259;27;20134;-70
2022/10/09 00:27:57;;;;;;;5.32;1.23;;;10.80;66.70;;;;;;5096801;28;20044;-70
2022/10/09 00:30:23;;;;;;;5.68;1.52;;;10.80;66.70;;;;;;5132204;27;20040;-70
2022/10/09 00:32:49;;;;;;;4.10;1.50;;;10.80;66.70;;;;;;5134778;27;20035;-70
2022/10/09 00:35:14;;;;;;;2.70;1.30;;;10.80;66.70;;;;;;5133835;27;20039;-70
2022/10/09 00:37:40;;;;;;;4.18;1.70;;;10.70;66.60;;;;;;5134601;27;20039;-70
2022/10/09 00:40:06;;;;;;;4.97;1.58;;;10.70;66.60;;;;;;5134267;27;20131;-70
2022/10/09 00:42:32;;;;;;;3.95;1.50;;;10.70;66.60;;;;;;5116752;27;20113;-70
2022/10/09 00:44:59;;;;;;;4.10;1.73;;;10.70;66.50;;;;;;5133596;27;20085;-70
2022/10/09 00:47:37;;;;;;;6.70;1.73;;;10.60;66.50;;;;;;5133940;27;20098;-70
2022/10/09 00:50:16;;;;;;;5.20;1.70;;;10.60;66.50;;;;;;5134017;27;20529;-70
2022/10/09 00:52:43;;;;;;;3.97;1.88;;;10.60;66.50;;;;;;5131124;27;20368;-70
2022/10/09 00:55:09;;;;;;;5.80;2.42;;;10.60;66.50;;;;;;5132532;27;20494;-70
2022/10/09 00:57:37;;;;;;;3.35;1.45;;;10.50;66.40;;;;;;5134429;27;20042;-70
2022/10/09 01:00:07;;;;;;;4.50;2.13;;;10.50;66.40;;;;;;5133763;27;20043;-70
2022/10/09 01:02:33;;;;;;;3.70;2.20;;;10.50;66.40;;;;;;5133800;27;20502;-70
2022/10/09 01:04:59;;;;;;;4.55;2.55;;;10.50;66.30;;;;;;5133372;27;20074;-70
2022/10/09 01:07:37;;;;;;;7.03;2.42;;;10.40;66.30;;;;;;5096270;28;20051;-70
2022/10/09 01:10:08;;;;;;;4.43;2.03;;;10.40;66.40;;;;;;5121765;27;20038;-70
2022/10/09 01:13:14;;;;;;;4.88;2.15;;;10.40;66.40;;;;;;5133598;27;20043;-70
2022/10/09 01:15:46;;;;;;;5.13;2.20;;;10.40;66.30;;;;;;5133319;27;20125;-70
2022/10/09 01:18:33;;;;;;;6.05;2.17;;;10.40;66.40;;;;;;5133854;27;20521;-70
2022/10/09 01:21:17;;;;;;;3.53;1.92;;;10.30;66.40;;;;;;5115996;27;20035;-70
2022/10/09 01:24:15;;;;;;;5.25;2.13;;;10.40;66.50;;;;;;5133342;27;20035;-70
2022/10/09 01:27:06;;;;;;;5.35;2.65;;;10.30;66.40;;;;;;5115835;27;20046;-70
2022/10/09 01:29:40;;;;;;;4.30;2.05;;;10.30;66.40;;;;;;5115554;27;20062;-70
2022/10/09 01:32:08;;;;;;;3.00;1.73;;;10.30;66.40;;;;;;5132803;27;20061;-70
2022/10/09 01:34:36;;;;;;;3.60;1.70;;;10.20;66.40;;;;;;5132939;27;20047;-70
2022/10/09 01:37:03;;;;;;;6.25;2.15;;;10.20;66.40;;;;;;5095891;28;20064;-70
2022/10/09 01:39:30;;;;;;;3.83;2.00;;;10.20;66.40;;;;;;5112724;28;20044;-70
2022/10/09 01:41:56;;;;;;;3.08;1.58;;;10.20;66.40;;;;;;5132300;27;20079;-70
2022/10/09 01:44:30;;;;;;;3.97;2.17;;;10.20;66.30;;;;;;5133181;27;20424;-70
2022/10/09 01:46:56;;;;;;;4.07;2.22;;;10.10;66.20;;;;;;5147703;27;20051;-70
2022/10/09 01:49:43;;;;;;;3.05;1.98;;;10.10;66.20;;;;;;5098970;27;20043;-70
2022/10/09 01:52:23;;;;;;;3.33;1.50;;;10.10;66.40;;;;;;5132759;27;20057;-70
2022/10/09 01:55:01;;;;;;;4.18;2.08;;;10.10;66.50;;;;;;5133027;27;20039;-70
2022/10/09 01:57:37;;;;;;;8.30;2.47;;;10.10;66.70;;;;;;5115064;27;20043;-70
2022/10/09 02:00:08;;;;;;;2.75;1.88;;;10.00;66.70;;;;;;5115530;27;20046;-70
2022/10/09 02:02:34;;;;;;;3.88;1.90;;;10.00;66.70;;;;;;5116607;27;20130;-70
2022/10/09 02:05:00;;;;;;;3.95;2.10;;;10.00;66.70;;;;;;5115226;27;20039;-70
2022/10/09 02:07:27;;;;;;;3.08;1.92;;;10.00;66.70;;;;;;5132643;27;20054;-70
2022/10/09 02:09:54;;;;;;;3.60;2.00;;;10.00;66.70;;;;;;5132374;27;20042;-70
2022/10/09 02:12:21;;;;;;;3.63;1.88;;;10.00;66.70;;;;;;5132916;27;20117;-70
2022/10/09 02:14:47;;;;;;;5.22;2.38;;;10.00;66.70;;;;;;5132169;27;20066;-70
2022/10/09 02:17:20;;;;;;;4.70;2.25;;;9.90;66.60;;;;;;5132602;27;20122;-70
2022/10/09 02:19:51;;;;;;;4.10;1.95;;;9.90;66.60;;;;;;5149679;27;20391;-70
2022/10/09 02:22:27;;;;;;;4.55;2.13;;;9.90;66.60;;;;;;5132757;27;20468;-70
2022/10/09 02:24:54;;;;;;;3.45;2.20;;;9.90;66.60;;;;;;5132329;27;20119;-70
2022/10/09 02:27:21;;;;;;;4.95;2.20;;;9.90;66.60;;;;;;5132213;27;20043;-70
2022/10/09 02:29:48;;;;;;;3.83;2.22;;;9.80;66.60;;;;;;5132455;27;20031;-69
2022/10/09 02:32:14;;;;;;;3.85;1.88;;;9.90;66.50;;;;;;5132241;27;20035;-70
2022/10/09 02:34:40;;;;;;;3.75;1.90;;;9.80;66.40;;;;;;5132115;27;20039;-70
2022/10/09 02:37:06;;;;;;;3.78;1.67;;;9.80;66.40;;;;;;5114989;28;20035;-70
2022/10/09 02:39:32;;;;;;;4.55;1.90;;;9.80;66.40;;;;;;5115207;28;20055;-70
2022/10/09 02:41:58;;;;;;;4.47;2.20;;;9.80;66.50;;;;;;5115286;28;20363;-70
2022/10/09 02:44:24;;;;;;;3.08;2.25;;;9.80;66.50;;;;;;5134784;27;20543;-70
2022/10/09 02:46:49;;;;;;;5.05;2.63;;;9.80;66.50;;;;;;5118917;27;20047;-69
2022/10/09 02:49:15;;;;;;;3.58;2.28;;;9.80;66.50;;;;;;5136406;27;20046;-69
2022/10/09 02:51:41;;;;;;;4.43;2.65;;;9.80;66.50;;;;;;5118786;27;20038;-69
2022/10/09 02:54:07;;;;;;;4.57;2.47;;;9.80;66.50;;;;;;5136247;27;20076;-69
2022/10/09 02:56:33;;;;;;;5.88;2.50;;;9.80;66.50;;;;;;5135886;27;20481;-69
2022/10/09 02:58:58;;;;;;;3.83;2.20;;;9.70;66.50;;;;;;5136336;27;20104;-69
2022/10/09 03:01:24;;;;;;;5.15;2.60;;;9.70;66.50;;;;;;5136299;27;20035;-69
2022/10/09 03:03:50;;;;;;;4.47;2.30;;;9.70;66.50;;;;;;5143075;27;20039;-69
2022/10/09 03:06:19;;;;;;;3.10;2.13;;;9.70;66.60;;;;;;5129500;27;20039;-69
2022/10/09 03:08:47;;;;;;;5.07;2.72;;;9.70;66.70;;;;;;5136153;27;20521;-69
2022/10/09 03:11:14;;;;;;;5.00;2.55;;;9.70;66.70;;;;;;5135942;27;20103;-69
2022/10/09 03:13:40;;;;;;;4.63;2.90;;;9.70;66.70;;;;;;5136062;27;20122;-69
2022/10/09 03:16:09;;;;;;;6.20;3.22;;;9.70;66.70;;;;;;5135708;27;20126;-69
2022/10/09 03:18:36;;;;;;;3.95;2.65;;;9.60;66.60;;;;;;5134650;27;20043;-69
2022/10/09 03:21:05;;;;;;;4.78;2.67;;;9.60;66.60;;;;;;5115765;28;20126;-69
2022/10/09 03:23:31;;;;;;;7.75;2.78;;;9.60;66.70;;;;;;5152300;27;20451;-69
2022/10/09 03:25:58;;;;;;;3.75;2.40;;;9.60;66.70;;;;;;5101705;27;20138;-69
2022/10/09 03:28:24;;;;;;;3.88;2.42;;;9.60;66.70;;;;;;5135538;27;20043;-69
2022/10/09 03:30:51;;;;;;;4.35;2.38;;;9.60;66.90;;;;;;5135968;27;20134;-69
2022/10/09 03:33:16;;;;;;;3.60;2.47;;;9.60;66.90;;;;;;5135855;27;20386;-69
2022/10/09 03:35:42;;;;;;;4.55;2.30;;;9.50;66.80;;;;;;5117796;27;20065;-69
2022/10/09 03:38:08;;;;;;;4.45;2.50;;;9.50;66.80;;;;;;5118403;27;20039;-69
2022/10/09 03:40:33;;;;;;;5.28;2.85;;;9.50;66.80;;;;;;5135568;27;20042;-69
2022/10/09 03:42:59;;;;;;;4.95;2.55;;;9.50;66.70;;;;;;5135330;27;20035;-69
2022/10/09 03:45:24;;;;;;;5.03;2.58;;;9.50;66.60;;;;;;5135073;27;20122;-69
2022/10/09 03:47:50;;;;;;;5.40;2.90;;;9.50;66.60;;;;;;5135075;27;20131;-69
2022/10/09 03:50:16;;;;;;;3.55;2.50;;;9.50;66.50;;;;;;5118151;27;20039;-69
2022/10/09 03:52:42;;;;;;;3.85;2.13;;;9.50;66.50;;;;;;5135040;27;20399;-69
2022/10/09 03:55:08;;;;;;;5.45;2.70;;;9.40;66.50;;;;;;5117621;27;20064;-69
2022/10/09 03:57:34;;;;;;;4.13;2.28;;;9.40;66.60;;;;;;5134800;27;20038;-69
2022/10/09 04:00:00;;;;;;;6.15;2.25;;;9.40;66.60;;;;;;5135166;27;20036;-69
2022/10/09 04:02:25;;;;;;;2.80;2.20;;;9.50;66.60;;;;;;5135213;27;20036;-69
2022/10/09 04:04:51;;;;;;;3.85;2.45;;;9.40;66.50;;;;;;5117694;27;20039;-69
2022/10/09 04:07:17;;;;;;;3.90;2.45;;;9.40;66.50;;;;;;5134621;27;20146;-69
2022/10/09 04:09:42;;;;;;;4.03;2.10;;;9.40;66.40;;;;;;5117894;27;20039;-69
2022/10/09 04:12:08;;;;;;;3.53;2.47;;;9.40;66.40;;;;;;5117713;27;20027;-69
2022/10/09 04:14:34;;;;;;;5.05;2.97;;;9.40;66.30;;;;;;5134294;27;20092;-69
2022/10/09 04:16:59;;;;;;;6.90;2.90;;;9.30;66.10;;;;;;5117950;27;20039;-69
2022/10/09 04:19:25;;;;;;;5.75;3.35;;;9.30;66.00;;;;;;5134620;27;20419;-69
2022/10/09 04:21:51;;;;;;;8.05;3.03;;;9.30;66.10;;;;;;5134883;27;20096;-69
2022/10/09 04:24:16;;;;;;;5.90;3.30;;;9.20;65.90;;;;;;5134105;27;20043;-69
2022/10/09 04:26:42;;;;;;;6.00;3.05;;;9.20;66.00;;;;;;5134759;27;20104;-69
2022/10/09 04:29:07;;;;;;;5.43;2.53;;;9.20;66.20;;;;;;5134311;27;20550;-69
2022/10/09 04:31:33;;;;;;;5.97;2.97;;;9.10;66.30;;;;;;5117475;27;20035;-69
2022/10/09 04:33:59;;;;;;;5.05;2.95;;;9.10;66.50;;;;;;5116873;27;20051;-69
2022/10/09 04:36:24;;;;;;;4.65;2.40;;;9.10;66.70;;;;;;5134312;27;20092;-69
2022/10/09 04:38:51;;;;;;;5.13;2.97;;;9.00;66.70;;;;;;5117364;27;20075;-69
2022/10/09 04:41:17;;;;;;;4.93;2.50;;;9.00;66.90;;;;;;5117083;27;20043;-69
2022/10/09 04:43:43;;;;;;;4.57;2.47;;;9.00;66.90;;;;;;5134215;27;20046;-69
2022/10/09 04:46:11;;;;;;;3.22;2.20;;;9.00;67.10;;;;;;5133653;27;20487;-69
2022/10/09 04:48:39;;;;;;;6.13;3.00;;;9.00;67.20;;;;;;5117016;27;20402;-68
2022/10/09 04:51:05;;;;;;;3.33;1.95;;;9.00;67.20;;;;;;5117153;27;20130;-68
2022/10/09 04:53:32;;;;;;;5.90;2.80;;;8.90;67.20;;;;;;5133920;27;20039;-68
2022/10/09 04:56:02;;;;;;;3.78;2.83;;;8.90;67.30;;;;;;5116242;27;20553;-69
2022/10/09 04:58:28;;;;;;;4.13;2.33;;;8.90;67.20;;;;;;5133695;27;20069;-69
2022/10/09 05:00:53;;;;;;;7.20;3.60;;;8.90;67.10;;;;;;5116856;27;20419;-69
2022/10/09 05:03:19;;;;;;;6.45;3.50;;;8.90;67.10;;;;;;5133748;27;20410;-69
2022/10/09 05:05:45;;;;;;;6.25;3.53;;;8.80;66.80;;;;;;5133163;27;20059;-69
2022/10/09 05:08:11;;;;;;;8.00;3.72;;;8.80;66.90;;;;;;5133700;27;20084;-68
2022/10/09 05:10:36;;;;;;;7.53;3.70;;;8.70;66.90;;;;;;5134180;27;20474;-68
2022/10/09 05:13:02;;;;;;;6.82;3.45;;;8.70;67.10;;;;;;5116268;27;20092;-68
2022/10/09 05:15:28;;;;;;;5.43;2.85;;;8.60;67.30;;;;;;5148800;27;20053;-68
2022/10/09 05:17:53;;;;;;;5.20;2.70;;;8.60;67.50;;;;;;5133719;27;20083;-68
2022/10/09 05:20:19;;;;;;;3.97;2.17;;;8.50;67.80;;;;;;5133446;27;20486;-68
2022/10/09 05:22:46;;;;;;;4.18;2.80;;;8.50;68.10;;;;;;5133414;27;20070;-70
2022/10/09 05:25:12;;;;;;;5.10;3.00;;;8.50;68.30;;;;;;5133022;27;20093;-70
2022/10/09 05:27:37;;;;;;;5.15;3.38;;;8.50;68.40;;;;;;5116140;27;20111;-68
2022/10/09 05:30:05;;;;;;;6.50;3.35;;;8.40;68.30;;;;;;5116251;27;20072;-70
2022/10/09 05:32:30;;;;;;;6.25;3.83;;;8.40;68.30;;;;;;5150332;27;20047;-70
2022/10/09 05:34:56;;;;;;;6.43;3.58;;;8.40;68.30;;;;;;5115696;27;20381;-70
2022/10/09 05:37:22;;;;;;;5.30;2.35;;;8.40;68.30;;;;;;5133400;27;20037;-70
2022/10/09 05:39:47;;;;;;;7.80;4.35;;;8.40;68.40;;;;;;5132845;27;20067;-70
2022/10/09 05:42:13;;;;;;;6.78;4.10;;;8.40;68.50;;;;;;5133511;27;20503;-70
2022/10/09 05:44:39;;;;;;;7.90;3.00;;;8.40;68.40;;;;;;5132818;27;20070;-67
2022/10/09 05:47:04;;;;;;;4.32;2.63;;;8.30;68.40;;;;;;5133231;27;20059;-67
2022/10/09 05:49:30;;;;;;;6.57;3.55;;;8.20;68.50;;;;;;5132906;27;20043;-67
2022/10/09 05:51:56;;;;;;;5.10;3.30;;;8.20;68.40;;;;;;5133495;27;20390;-70
2022/10/09 05:54:21;;;;;;;7.47;3.25;;;8.20;68.50;;;;;;5132064;27;20542;-70
2022/10/09 05:56:47;;;;;;;4.78;3.20;;;8.10;68.60;;;;;;5133237;27;20126;-70
2022/10/09 05:59:18;;;;;;;4.18;2.95;;;8.10;68.70;;;;;;5132517;27;20440;-67
2022/10/09 06:01:47;;;;;;;3.85;2.55;;;8.10;68.80;;;;;;5133018;27;20084;-67
2022/10/09 06:04:21;;;;;;;5.07;2.95;;;8.10;69.00;;;;;;5116901;27;20039;-67
2022/10/09 06:06:48;;;;;;;4.53;2.38;;;8.10;69.30;;;;;;5132984;27;20039;-70
2022/10/09 06:09:15;;;;;;;5.75;3.10;;;8.10;69.40;;;;;;5132612;27;20039;-67
2022/10/09 06:11:41;;;;;;;6.70;3.00;;;8.10;69.50;;;;;;5115702;27;20431;-67
2022/10/09 06:14:10;;;;;;;4.25;2.95;;;8.10;69.30;;;;;;5132177;27;20160;-67
2022/10/09 06:16:40;;;;;;;3.00;2.00;;;8.10;69.10;;;;;;5132834;27;20035;-67
2022/10/09 06:19:09;;;;;;;5.78;3.63;;;8.10;68.80;;;;;;5112151;28;20126;-70
2022/10/09 06:21:35;;;;;;;5.43;3.15;;;8.00;68.80;;;;;;5132501;27;20043;-67
2022/10/09 06:24:02;;;;;;;4.55;2.60;;;8.10;68.80;;;;;;5115236;27;20046;-67
2022/10/09 06:26:29;;;;;;;5.93;2.88;;;8.00;68.80;;;;;;5132166;27;20055;-69
2022/10/09 06:28:55;;;;;;;6.38;3.30;;;8.00;68.80;;;;;;5132418;27;20110;-67
2022/10/09 06:31:24;;;;;;;6.40;3.08;;;8.00;68.90;;;;;;5132003;27;20513;-68
2022/10/09 06:33:51;;;;;;;4.28;2.80;;;8.00;69.10;;;;;;5115217;28;20047;-68
2022/10/09 06:36:22;;;;;;;6.28;3.78;;;8.00;69.20;;;;;;5131817;28;20487;-68
2022/10/09 06:38:48;;;;;;;6.47;4.18;;;8.10;69.30;;;;;;5132474;27;20050;-67
2022/10/09 06:41:16;;;;;;;8.15;4.10;;;8.00;69.40;;;;;;5132249;28;20111;-68
2022/10/09 06:43:46;;;;;;;7.07;3.78;;;8.00;69.50;;;;;;5115273;28;20412;-68
2022/10/09 06:46:12;;;;;;;4.60;3.50;;;8.00;69.50;;;;;;5131881;27;20519;-68
2022/10/09 06:48:39;;;;;;;9.35;4.80;;;7.90;69.60;;;;;;5132178;28;20054;-68
2022/10/09 06:51:11;;;;;;;6.68;4.57;;;8.00;69.90;;;;;;5115311;28;20046;-68
2022/10/09 06:53:39;;;;;;;5.68;4.50;;;7.90;70.00;;;;;;5131398;27;20035;-68
2022/10/09 06:56:05;;;;;;;6.63;4.60;;;7.90;70.10;;;;;;5130653;28;20043;-68
2022/10/09 06:58:31;;;;;;;9.70;5.15;;;7.90;70.30;;;;;;5114993;28;20050;-68
2022/10/09 07:01:08;;;;;;;9.55;5.47;;;7.90;70.50;;;;;;5131913;28;20040;-68
2022/10/09 07:03:34;;;;;;;8.63;5.47;;;7.80;70.90;;;;;;5132508;28;20035;-68
2022/10/09 07:06:11;;;;;;;9.15;5.70;;;7.80;71.50;;;;;;5131462;28;20047;-68
2022/10/09 07:08:38;;;;;;;11.13;5.47;;;7.80;71.80;;;;;;5132012;27;20348;-68
2022/10/09 07:11:12;;;;;;;9.00;6.10;;;7.80;72.00;;;;;;5131906;27;20067;-68
2022/10/09 07:13:38;;;;;;;11.48;6.47;;;7.80;72.50;;;;;;5131995;27;20031;-68
2022/10/09 07:16:05;;;;;;;8.65;5.97;;;7.80;72.60;;;;;;5114653;28;20035;-68
2022/10/09 07:18:34;;;;;;;7.75;6.85;;;7.80;72.80;;;;;;5132108;28;20074;-68
2022/10/09 07:21:02;;;;;;;8.85;6.35;;;7.70;73.10;;;;;;5114668;28;20031;-68
2022/10/09 07:23:28;;;;;;;11.43;7.25;;;7.80;73.40;;;;;;5131865;27;20047;-68
2022/10/09 07:25:54;;;;;;;10.77;6.85;;;7.80;73.60;;;;;;5131381;27;20071;-68
2022/10/09 07:28:20;;;;;;;11.23;7.32;;;7.80;74.00;;;;;;5132075;27;20114;-68
2022/10/09 07:30:45;;;;;;;8.02;6.00;;;7.80;74.20;;;;;;5134606;27;20077;-68
2022/10/09 07:33:11;;;;;;;11.02;6.57;;;7.90;74.50;;;;;;5118913;27;20475;-68
2022/10/09 07:35:37;;;;;;;10.85;7.00;;;7.90;74.70;;;;;;5118447;27;20050;-69
2022/10/09 07:38:03;;;;;;;8.10;5.85;;;7.90;75.00;;;;;;5118504;27;20043;-68
2022/10/09 07:40:28;;;;;;;8.98;6.50;;;8.00;75.70;;;;;;5135428;27;20043;-68
2022/10/09 07:42:54;;;;;;;12.00;6.80;;;8.10;75.50;;;;;;5118445;27;20112;-68
2022/10/09 07:45:20;;;;;;;9.10;6.15;;;8.10;75.70;;;;;;5135140;27;20127;-69
2022/10/09 07:47:45;;;;;;;11.68;7.35;;;8.20;75.90;;;;;;5134935;27;20058;-69
2022/10/09 07:50:11;;;;;;;8.65;6.13;;;8.30;76.10;;;;;;5135332;27;20043;-69
2022/10/09 07:52:37;;;;;;;11.95;5.93;;;8.30;76.20;;;;;;5117794;27;20114;-69
2022/10/09 07:55:02;;;;;;;8.98;6.55;;;8.40;76.50;;;;;;5116827;27;20066;-69
2022/10/09 07:57:28;;;;;;;9.23;5.85;;;8.50;76.80;;;;;;5130478;27;20067;-69
2022/10/09 07:59:54;;;;;;;8.32;5.13;;;8.60;77.20;;;;;;5135377;27;20520;-69
2022/10/09 08:02:19;;;;;;;14.55;5.65;;;8.90;77.60;;;;;;5135326;27;20043;-69
2022/10/09 08:04:45;;;;;;;10.02;5.60;;;9.00;77.90;;;;;;5135216;27;20482;-69
2022/10/09 08:07:11;;;;;;;12.02;5.05;;;9.20;78.00;;;;;;5134821;27;20035;-69
2022/10/09 08:09:36;;;;;;;11.32;5.07;;;9.50;78.10;;;;;;5134907;27;20047;-69
2022/10/09 08:12:02;;;;;;;8.77;4.38;;;9.70;77.80;;;;;;5105077;27;20028;-69
2022/10/09 08:14:28;;;;;;;8.55;4.47;;;10.00;77.80;;;;;;5127611;27;20039;-69
2022/10/09 08:16:53;;;;;;;5.88;3.80;;;10.20;77.10;;;;;;5134488;27;20031;-69
2022/10/09 08:19:19;;;;;;;8.57;4.55;;;10.50;76.70;;;;;;5116739;27;20050;-69
2022/10/09 08:21:45;;;;;;;10.23;4.60;;;10.80;76.30;;;;;;5142002;27;20046;-69
2022/10/09 08:24:11;;;;;;;6.78;4.03;;;11.00;75.70;;;;;;5148060;27;20057;-69
2022/10/09 08:26:37;;;;;;;9.82;4.40;;;11.20;75.20;;;;;;5147518;27;20035;-69
2022/10/09 08:29:04;;;;;;;8.25;3.97;;;11.50;74.50;;;;;;5149592;27;20039;-69
2022/10/09 08:31:30;;;;;;;6.47;4.10;;;11.70;73.80;;;;;;5147253;27;20042;-69
2022/10/09 08:33:58;;;;;;;9.40;4.18;;;11.90;73.20;;;;;;5150926;27;20053;-69
2022/10/09 08:36:24;;;;;;;6.50;3.53;;;12.20;72.20;;;;;;5133565;27;20414;-69
2022/10/09 08:38:51;;;;;;;7.10;4.30;;;12.30;71.70;;;;;;5133408;27;20046;-69
2022/10/09 08:41:40;;;;;;;8.13;4.13;;;12.50;71.10;;;;;;5150135;27;20049;-69
2022/10/09 08:44:25;;;;;;;11.80;4.60;;;12.60;70.30;;;;;;5150357;27;20042;-69
2022/10/09 08:46:58;;;;;;;7.47;3.80;;;12.70;69.90;;;;;;5149320;27;20187;-69
2022/10/09 08:49:45;;;;;;;7.82;3.88;;;12.90;69.70;;;;;;5132967;27;20478;-69
2022/10/09 08:52:18;;;;;;;8.90;3.72;;;13.00;69.00;;;;;;5147528;27;20398;-69
2022/10/09 08:54:43;;;;;;;7.70;4.07;;;13.10;69.20;;;;;;5149006;27;20043;-69
2022/10/09 08:57:13;;;;;;;8.02;3.90;;;13.30;69.20;;;;;;5148235;27;20114;-69
2022/10/09 08:59:39;;;;;;;8.60;3.70;;;13.50;68.50;;;;;;5132834;27;20034;-69
2022/10/09 09:02:18;;;;;;;9.45;3.60;;;13.60;67.60;;;;;;5130621;27;20043;-70
2022/10/09 09:05:11;;;;;;;10.73;3.85;;;13.80;67.30;;;;;;5147581;27;20039;-69
2022/10/09 09:08:06;;;;;;;12.70;3.95;;;14.00;67.40;;;;;;5147115;27;20060;-69
2022/10/09 09:10:55;;;;;;;7.72;3.15;;;14.20;66.80;;;;;;5149847;27;20039;-69
2022/10/09 09:13:46;;;;;;;7.30;3.20;;;14.40;66.00;;;;;;5147903;27;20035;-69
2022/10/09 09:16:28;;;;;;;9.40;3.90;;;14.60;65.40;;;;;;5146221;27;20403;-70
2022/10/09 09:19:19;;;;;;;10.82;3.88;;;14.70;64.70;;;;;;5133155;27;20095;-69
2022/10/09 09:21:52;;;;;;;7.30;3.22;;;14.80;64.20;;;;;;5133504;27;20126;-69
2022/10/09 09:24:20;;;;;;;11.55;3.60;;;14.90;64.60;;;;;;5132866;27;20051;-69
2022/10/09 09:26:52;;;;;;;11.18;3.83;;;15.00;64.10;;;;;;5133363;27;20046;-69
2022/10/09 09:29:22;;;;;;;7.85;3.05;;;15.10;63.50;;;;;;5133223;27;20413;-69
2022/10/09 09:31:52;;;;;;;8.90;3.58;;;15.20;62.60;;;;;;5133149;27;20043;-69
2022/10/09 09:34:37;;;;;;;9.35;3.20;;;15.20;62.40;;;;;;5131922;27;20054;-69
2022/10/09 09:37:03;;;;;;;8.05;3.20;;;15.30;61.30;;;;;;5132871;27;20456;-69
2022/10/09 09:39:32;;;;;;;8.65;3.20;;;15.30;61.40;;;;;;5116086;27;20168;-70
2022/10/09 09:42:06;;;;;;;10.85;3.70;;;15.40;61.00;;;;;;5133305;27;20043;-69
2022/10/09 09:44:35;;;;;;;7.93;3.10;;;15.40;60.50;;;;;;5133165;27;20171;-70
2022/10/09 09:47:01;;;;;;;6.25;2.80;;;15.40;61.20;;;;;;5132855;27;20055;-70
2022/10/09 09:49:28;;;;;;;9.77;3.55;;;15.50;60.60;;;;;;5132316;27;20054;-70
2022/10/09 09:51:57;;;;;;;7.28;2.97;;;15.50;60.60;;;;;;5116143;27;20043;-70
2022/10/09 09:54:26;;;;;;;7.70;2.85;;;15.60;60.80;;;;;;5115859;27;20390;-70
2022/10/09 09:56:55;;;;;;;10.15;3.10;;;15.60;60.40;;;;;;5132761;27;20031;-70
2022/10/09 09:59:35;;;;;;;10.60;3.38;;;15.70;59.80;;;;;;5115799;27;20128;-70
2022/10/09 10:02:20;;;;;;;8.98;3.20;;;15.70;59.20;;;;;;5133082;27;20122;-70
2022/10/09 10:04:56;;;;;;;8.32;2.42;;;15.80;59.50;;;;;;5132683;27;20043;-70
2022/10/09 10:07:30;;;;;;;8.30;2.83;;;15.80;59.60;;;;;;5132755;27;20039;-70
2022/10/09 10:10:08;;;;;;;8.48;2.88;;;15.80;59.40;;;;;;5132498;27;20043;-70
2022/10/09 10:13:00;;;;;;;10.50;3.28;;;15.90;59.40;;;;;;5132684;27;20475;-70
2022/10/09 10:15:31;;;;;;;7.25;2.58;;;16.00;59.20;;;;;;5130650;27;20131;-69
2022/10/09 10:18:05;;;;;;;11.27;3.00;;;16.10;59.10;;;;;;5144943;27;20579;-74
2022/10/09 10:20:32;;;;;;;;;;;16.20;59.00;;;;;;5115840;27;20101;-75
2022/10/09 10:22:59;;;;;;;11.10;3.17;;;16.30;59.50;;;;;;5115213;27;19916;-76
2022/10/09 10:25:34;;;;;;;10.55;2.55;;;16.30;58.40;;;;;;5132440;27;20047;-74
2022/10/09 10:28:06;;;;;;;7.65;2.22;;;16.40;57.40;;;;;;5131667;27;20087;-74
2022/10/09 10:30:34;;;;;;;5.35;2.65;;;16.40;57.50;;;;;;5131897;27;20126;-74
2022/10/09 10:33:12;;;;;;;7.78;3.00;;;16.40;56.90;;;;;;5131974;28;20042;-74
2022/10/09 10:35:41;;;;;;;5.90;2.80;;;16.50;56.60;;;;;;5111945;28;20036;-75
2022/10/09 10:38:27;;;;;;;8.52;3.38;;;16.50;56.50;;;;;;5130917;27;20502;-75
2022/10/09 10:40:56;;;;;;;10.35;3.78;;;16.50;56.30;;;;;;5146991;27;20042;-75
2022/10/09 10:43:48;;;;;;;12.20;3.75;;;16.50;56.30;;;;;;5132542;28;20431;-75
2022/10/09 10:46:21;;;;;;;10.20;3.35;;;16.50;55.70;;;;;;5115053;28;20047;-74
2022/10/09 10:48:48;;;;;;;11.50;3.13;;;16.50;55.80;;;;;;5122529;28;20050;-76
2022/10/09 10:51:42;;;;;;;8.02;3.28;;;16.50;56.10;;;;;;5132795;28;20043;-75
2022/10/09 10:54:41;;;;;;;9.10;3.00;;;16.50;55.90;;;;;;5132692;27;20031;-75
2022/10/09 10:57:32;;;;;;;8.73;3.10;;;16.60;55.30;;;;;;5131912;27;20036;-75
2022/10/09 11:00:05;;;;;;;10.23;3.25;;;16.60;54.80;;;;;;5132708;28;20394;-74
2022/10/09 11:02:47;;;;;;;9.25;2.85;;;16.60;54.30;;;;;;5132495;27;20075;-75
2022/10/09 11:05:45;;;;;;;13.07;4.45;;;16.60;54.60;;;;;;5134660;27;20486;-75
2022/10/09 11:08:46;;;;;;;9.73;3.20;;;16.60;54.70;;;;;;5095847;27;20043;-76
2022/10/09 11:11:19;;;;;;;8.10;2.60;;;16.60;54.60;;;;;;5136351;27;20031;-77
2022/10/09 11:14:07;;;;;;;9.00;3.10;;;16.70;54.00;;;;;;5117981;27;20031;-78
2022/10/09 11:16:47;;;;;;;7.93;3.22;;;16.70;53.80;;;;;;5120620;27;20067;-78
2022/10/09 11:19:28;;;;;;;8.55;3.50;;;16.70;54.20;;;;;;5118848;27;20062;-75
2022/10/09 11:22:28;;;;;;;8.10;3.20;;;16.80;54.00;;;;;;5136367;27;20082;-71
2022/10/09 11:25:13;;;;;;;8.65;3.55;;;16.90;53.70;;;;;;5123953;27;20035;-72
2022/10/09 11:27:59;;;;;;;8.73;3.45;;;16.90;53.80;;;;;;5135186;27;20043;-75
2022/10/09 11:30:36;;;;;;;8.77;3.42;;;16.90;53.60;;;;;;5135782;27;20039;-75
2022/10/09 11:33:27;;;;;;;8.15;3.22;;;16.90;53.80;;;;;;5126969;27;20032;-75
2022/10/09 11:35:59;;;;;;;10.23;3.65;;;17.00;53.00;;;;;;5112156;27;20041;-75
2022/10/09 11:38:28;;;;;;;7.72;3.63;;;17.00;53.30;;;;;;5135437;27;20043;-74
2022/10/09 11:40:55;;;;;;;7.05;2.70;;;17.00;52.60;;;;;;5118322;27;20035;-74
2022/10/09 11:43:24;;;;;;;8.68;3.10;;;17.00;53.00;;;;;;5135264;27;20074;-73
2022/10/09 11:46:14;;;;;;;10.40;3.13;;;17.00;53.00;;;;;;5135153;27;20118;-74
2022/10/09 11:48:43;;;;;;;10.45;3.00;;;17.00;52.90;;;;;;5097877;28;20059;-79
2022/10/09 11:51:27;;;;;;;9.07;2.45;;;17.00;52.10;;;;;;5115436;27;20039;-74
2022/10/09 11:53:54;;;;;;;9.63;3.28;;;17.00;50.90;;;;;;5118724;27;20035;-80
2022/10/09 11:56:21;;;;;;;7.88;2.50;;;16.90;51.30;;;;;;5099726;27;20047;-76
2022/10/09 11:59:02;;;;;;;5.80;2.22;;;16.80;51.60;;;;;;5148932;27;20091;-75
2022/10/09 12:01:36;;;;;;;9.27;3.65;;;16.80;51.50;;;;;;5122362;27;20038;-75
2022/10/09 12:04:27;;;;;;;4.15;2.10;;;16.80;50.90;;;;;;5135423;27;20039;-73
2022/10/09 12:07:03;;;;;;;7.55;2.58;;;16.70;51.50;;;;;;5135110;27;20039;-75
2022/10/09 12:09:40;;;;;;;6.47;2.72;;;16.70;51.10;;;;;;5135802;27;20494;-76
2022/10/09 12:12:09;;;;;;;7.45;3.33;;;16.70;51.50;;;;;;5135338;27;20035;-76
2022/10/09 12:14:36;;;;;;;10.63;2.88;;;16.70;50.50;;;;;;5135066;27;20095;-75
2022/10/09 12:17:15;;;;;;;8.18;2.33;;;16.70;50.30;;;;;;5135142;27;20050;-74
2022/10/09 12:19:42;;;;;;;7.95;2.65;;;16.70;50.40;;;;;;5117613;27;20042;-73
2022/10/09 12:22:19;;;;;;;9.15;2.63;;;16.70;50.40;;;;;;5117511;27;20130;-74
2022/10/09 12:24:49;;;;;;;7.20;2.20;;;16.60;50.10;;;;;;5134665;27;20043;-74
2022/10/09 12:27:21;;;;;;;7.15;2.35;;;16.60;50.30;;;;;;5134265;27;20114;-76
2022/10/09 12:29:53;;;;;;;8.95;2.88;;;16.60;50.60;;;;;;5117498;27;20035;-75
2022/10/09 12:32:29;;;;;;;7.53;2.35;;;16.50;50.60;;;;;;5134545;27;20136;-76
2022/10/09 12:34:55;;;;;;;6.80;2.95;;;16.60;51.20;;;;;;5117573;27;20045;-72
2022/10/09 12:37:32;;;;;;;7.20;2.70;;;16.60;51.40;;;;;;5142382;27;20045;-75
2022/10/09 12:40:13;;;;;;;12.27;2.97;;;16.60;50.90;;;;;;5134598;27;20402;-75
2022/10/09 12:42:40;;;;;;;8.35;2.47;;;16.50;50.90;;;;;;5130557;27;20053;-72
2022/10/09 12:45:13;;;;;;;5.72;2.30;;;16.50;51.20;;;;;;5117407;27;20035;-76
2022/10/09 12:47:39;;;;;;;6.70;2.30;;;16.50;51.50;;;;;;5136039;27;20084;-73
2022/10/09 12:50:32;;;;;;;7.70;2.30;;;16.60;51.60;;;;;;5151970;27;20051;-73
2022/10/09 12:53:01;;;;;;;14.23;2.88;;;16.60;50.70;;;;;;5137470;27;20096;-73
2022/10/09 12:55:39;;;;;;;7.53;2.42;;;16.60;50.00;;;;;;5148440;27;20042;-74
2022/10/09 12:58:11;;;;;;;7.43;2.55;;;16.50;49.90;;;;;;5132500;27;20042;-74
2022/10/09 13:00:39;;;;;;;9.75;2.60;;;16.50;50.40;;;;;;5146991;27;20042;-74
2022/10/09 13:03:05;;;;;;;7.10;2.58;;;16.50;50.60;;;;;;5148445;27;20053;-74
2022/10/09 13:05:36;;;;;;;8.20;2.70;;;16.50;50.30;;;;;;5133392;27;20421;-75
2022/10/09 13:08:02;;;;;;;9.50;3.30;;;16.50;50.00;;;;;;5131331;27;20035;-73